Time;durP1;ratioP1;P1;durP2;ratioP2;P2;SDS_P1;SDS_P2;PMS_P1;PMS_P2;Temp;Humidity;BMP_temperature;BMP_pressure;BME280_temperature;BME280_humidity;BME280_pressure;Samples;Min_cycle;Max_cycle;Signal;HPM_P1;HPM_P2
2021/05/30 00:00:21;;;;;;;480.15;321.20;;;;;;;;;;4977910;28;20018;-83
2021/05/30 00:02:47;;;;;;;475.35;313.63;;;;;;;;;;4987183;28;20087;-79
2021/05/30 00:05:14;;;;;;;474.08;314.17;;;;;;;;;;4978195;28;20034;-81
2021/05/30 00:07:40;;;;;;;471.13;314.15;;;;;;;;;;4981315;28;20030;-79
2021/05/30 00:10:07;;;;;;;474.42;314.50;;;;;;;;;;4981351;28;20021;-80
2021/05/30 00:12:33;;;;;;;471.30;312.17;;;;;;;;;;4982383;28;20686;-82
2021/05/30 00:14:59;;;;;;;470.02;307.02;;;;;;;;;;4975132;28;20023;-81
2021/05/30 00:17:25;;;;;;;475.13;316.75;;;;;;;;;;4979852;28;20026;-81
2021/05/30 00:19:51;;;;;;;469.20;306.38;;;;;;;;;;4979017;28;20933;-80
2021/05/30 00:22:18;;;;;;;471.88;310.70;;;;;;;;;;4980635;28;20462;-81
2021/05/30 00:24:44;;;;;;;471.50;305.45;;;;;;;;;;4985776;28;20034;-82
2021/05/30 00:27:10;;;;;;;474.38;315.00;;;;;;;;;;4987035;28;20432;-81
2021/05/30 00:29:36;;;;;;;470.92;303.83;;;;;;;;;;4986165;28;20620;-80
2021/05/30 00:32:02;;;;;;;471.92;303.15;;;;;;;;;;4981359;28;20022;-81
2021/05/30 00:34:28;;;;;;;477.05;306.05;;;;;;;;;;4984130;28;20018;-80
2021/05/30 00:36:54;;;;;;;477.70;309.33;;;;;;;;;;4990501;28;20578;-79
2021/05/30 00:39:20;;;;;;;481.63;311.95;;;;;;;;;;4980243;28;20029;-80
2021/05/30 00:41:46;;;;;;;481.25;306.35;;;;;;;;;;4988821;28;20056;-81
2021/05/30 00:44:24;;;;;;;490.33;316.95;;;;;;;;;;4990534;28;20457;-80
2021/05/30 00:46:50;;;;;;;488.15;315.48;;;;;;;;;;4988219;28;20030;-80
2021/05/30 00:49:16;;;;;;;498.00;324.25;;;;;;;;;;4981142;28;20030;-82
2021/05/30 00:51:42;;;;;;;494.88;322.38;;;;;;;;;;4985972;28;20021;-80
2021/05/30 00:54:08;;;;;;;492.65;314.83;;;;;;;;;;4988820;28;20321;-80
2021/05/30 00:56:36;;;;;;;498.45;321.85;;;;;;;;;;4984661;28;20690;-81
2021/05/30 00:59:03;;;;;;;508.13;322.95;;;;;;;;;;4982208;28;20045;-80
2021/05/30 01:01:29;;;;;;;509.17;324.88;;;;;;;;;;4984224;28;20034;-80
2021/05/30 01:03:55;;;;;;;502.45;313.55;;;;;;;;;;4987968;28;20440;-80
2021/05/30 01:06:24;;;;;;;503.13;324.65;;;;;;;;;;4987961;28;20022;-81
2021/05/30 01:08:50;;;;;;;500.73;321.83;;;;;;;;;;4997734;28;20034;-81
2021/05/30 01:11:17;;;;;;;501.88;317.92;;;;;;;;;;4980398;28;20049;-80
2021/05/30 01:13:44;;;;;;;507.95;333.23;;;;;;;;;;4986244;28;20050;-80
2021/05/30 01:16:12;;;;;;;502.10;318.35;;;;;;;;;;4984322;28;20026;-80
2021/05/30 01:18:38;;;;;;;503.75;322.67;;;;;;;;;;4984599;28;20069;-81
2021/05/30 01:21:04;;;;;;;501.35;317.77;;;;;;;;;;4978592;28;20022;-81
2021/05/30 01:23:31;;;;;;;502.58;322.17;;;;;;;;;;4988812;28;20018;-81
2021/05/30 01:25:57;;;;;;;498.42;320.80;;;;;;;;;;4982026;28;20030;-82
2021/05/30 01:28:23;;;;;;;500.80;317.42;;;;;;;;;;4986775;28;20452;-80
2021/05/30 01:30:49;;;;;;;495.15;319.90;;;;;;;;;;4978102;28;20052;-80
2021/05/30 01:33:16;;;;;;;490.13;314.10;;;;;;;;;;4993724;28;20443;-80
2021/05/30 01:35:42;;;;;;;491.65;315.13;;;;;;;;;;4982661;28;20018;-81
2021/05/30 01:38:08;;;;;;;491.85;313.85;;;;;;;;;;4984518;28;20044;-80
2021/05/30 01:40:34;;;;;;;496.55;315.05;;;;;;;;;;4982967;28;20507;-80
2021/05/30 01:43:00;;;;;;;508.48;324.05;;;;;;;;;;4979322;28;20684;-81
2021/05/30 01:45:31;;;;;;;497.25;328.33;;;;;;;;;;4983748;28;20099;-80
2021/05/30 01:47:57;;;;;;;493.35;317.20;;;;;;;;;;4978566;28;20392;-80
2021/05/30 01:50:24;;;;;;;505.05;322.80;;;;;;;;;;4980873;28;20026;-79
2021/05/30 01:52:51;;;;;;;504.42;314.95;;;;;;;;;;4986689;28;20079;-80
2021/05/30 01:55:43;;;;;;;504.13;324.13;;;;;;;;;;4986751;28;20041;-82
2021/05/30 01:58:09;;;;;;;508.98;321.75;;;;;;;;;;4978498;28;20031;-80
2021/05/30 02:00:36;;;;;;;498.08;317.25;;;;;;;;;;4981675;28;20050;-80
2021/05/30 02:03:02;;;;;;;482.90;312.17;;;;;;;;;;4981818;28;20054;-81
2021/05/30 02:05:30;;;;;;;484.23;314.40;;;;;;;;;;4983806;28;20086;-82
2021/05/30 02:07:56;;;;;;;486.42;318.05;;;;;;;;;;4985626;28;20030;-81
2021/05/30 02:10:23;;;;;;;487.42;316.73;;;;;;;;;;4983941;28;20037;-81
2021/05/30 02:12:50;;;;;;;487.35;312.17;;;;;;;;;;4981979;28;20468;-80
2021/05/30 02:15:18;;;;;;;486.73;310.40;;;;;;;;;;4976257;28;20031;-82
2021/05/30 02:17:45;;;;;;;498.30;323.38;;;;;;;;;;4977249;28;20021;-80
2021/05/30 02:20:13;;;;;;;503.00;321.58;;;;;;;;;;4977203;28;20037;-83
2021/05/30 02:22:39;;;;;;;496.35;318.70;;;;;;;;;;4982682;28;20070;-81
2021/05/30 02:25:05;;;;;;;501.45;320.30;;;;;;;;;;4980128;28;20025;-82
2021/05/30 02:27:31;;;;;;;560.85;363.73;;;;;;;;;;4975983;28;20058;-80
2021/05/30 02:29:57;;;;;;;497.02;319.58;;;;;;;;;;4984640;28;20491;-82
2021/05/30 02:32:23;;;;;;;527.03;337.17;;;;;;;;;;4982760;28;20030;-80
2021/05/30 02:34:49;;;;;;;499.00;321.65;;;;;;;;;;4985980;28;20027;-80
2021/05/30 02:37:16;;;;;;;493.90;315.63;;;;;;;;;;4979107;28;20061;-80
2021/05/30 02:39:42;;;;;;;486.25;314.05;;;;;;;;;;4976962;28;20018;-80
2021/05/30 02:42:09;;;;;;;490.65;316.23;;;;;;;;;;4979292;28;20496;-84
2021/05/30 02:44:35;;;;;;;488.17;313.85;;;;;;;;;;4975684;28;20034;-80
2021/05/30 02:47:01;;;;;;;497.77;313.08;;;;;;;;;;4983375;28;20031;-80
2021/05/30 02:49:29;;;;;;;493.02;309.27;;;;;;;;;;4976454;28;20027;-81
2021/05/30 02:51:55;;;;;;;500.92;313.27;;;;;;;;;;4985934;28;20105;-82
2021/05/30 02:54:21;;;;;;;501.23;304.17;;;;;;;;;;4981796;28;20176;-80
2021/05/30 02:56:47;;;;;;;502.35;313.35;;;;;;;;;;4985464;28;20027;-81
2021/05/30 02:59:13;;;;;;;502.55;312.88;;;;;;;;;;4982629;28;20105;-81
2021/05/30 03:01:39;;;;;;;505.15;313.38;;;;;;;;;;4984776;28;20636;-79
2021/05/30 03:04:05;;;;;;;501.27;314.42;;;;;;;;;;4977439;28;20460;-79
2021/05/30 03:06:31;;;;;;;503.52;310.58;;;;;;;;;;4977664;28;20038;-79
2021/05/30 03:08:58;;;;;;;510.48;316.35;;;;;;;;;;4983914;28;20049;-81
2021/05/30 03:11:25;;;;;;;521.65;321.95;;;;;;;;;;4977820;28;20035;-81
2021/05/30 03:13:51;;;;;;;510.38;312.02;;;;;;;;;;4976124;28;20042;-80
2021/05/30 03:16:17;;;;;;;507.13;309.55;;;;;;;;;;4981304;28;20058;-80
2021/05/30 03:18:43;;;;;;;512.60;318.63;;;;;;;;;;4980775;28;20030;-79
2021/05/30 03:21:09;;;;;;;509.48;310.08;;;;;;;;;;4981632;28;20045;-79
2021/05/30 03:23:35;;;;;;;511.63;310.02;;;;;;;;;;4974164;28;20398;-82
2021/05/30 03:26:01;;;;;;;509.85;310.58;;;;;;;;;;4981898;28;20018;-79
2021/05/30 03:28:27;;;;;;;520.45;321.33;;;;;;;;;;4975598;28;20089;-80
2021/05/30 03:30:53;;;;;;;508.25;301.02;;;;;;;;;;4978080;28;20040;-79
2021/05/30 03:33:21;;;;;;;509.27;308.27;;;;;;;;;;4984348;28;20391;-81
2021/05/30 03:35:47;;;;;;;508.38;315.85;;;;;;;;;;4977644;28;20508;-81
2021/05/30 03:38:15;;;;;;;512.85;313.25;;;;;;;;;;4978057;28;20437;-82
2021/05/30 03:43:08;;;;;;;512.78;309.80;;;;;;;;;;4976974;28;20069;-81
2021/05/30 03:45:34;;;;;;;527.92;319.27;;;;;;;;;;4971639;28;20035;-82
2021/05/30 03:48:01;;;;;;;566.60;340.77;;;;;;;;;;4971367;28;20449;-79
2021/05/30 03:50:27;;;;;;;537.47;317.50;;;;;;;;;;4976814;28;20142;-80
2021/05/30 03:52:53;;;;;;;551.70;330.50;;;;;;;;;;4974980;28;20417;-80
2021/05/30 03:55:20;;;;;;;578.92;339.23;;;;;;;;;;4985422;28;20023;-81
2021/05/30 03:57:46;;;;;;;608.80;363.98;;;;;;;;;;4981822;28;20026;-79
2021/05/30 04:00:13;;;;;;;580.95;347.92;;;;;;;;;;4983201;28;20027;-81
2021/05/30 04:02:39;;;;;;;573.50;337.83;;;;;;;;;;4982725;28;20033;-80
2021/05/30 04:05:05;;;;;;;593.03;357.65;;;;;;;;;;4983290;28;20026;-79
2021/05/30 04:07:36;;;;;;;585.47;343.70;;;;;;;;;;4981508;28;21618;-79
2021/05/30 04:10:06;;;;;;;606.65;355.08;;;;;;;;;;4981648;28;20499;-81
2021/05/30 04:12:32;;;;;;;;;;;;;;;;;;4980272;28;20038;-81
2021/05/30 04:14:58;;;;;;;575.53;339.08;;;;;;;;;;4986259;28;19905;-81
2021/05/30 04:17:24;;;;;;;606.17;346.52;;;;;;;;;;4984920;28;20034;-80
2021/05/30 04:19:50;;;;;;;549.80;326.35;;;;;;;;;;4987292;28;20176;-81
2021/05/30 04:22:19;;;;;;;644.25;380.40;;;;;;;;;;4985165;28;20114;-80
2021/05/30 04:24:45;;;;;;;609.15;359.50;;;;;;;;;;4984667;28;20487;-80
2021/05/30 04:27:11;;;;;;;582.20;356.00;;;;;;;;;;4987590;28;20026;-79
2021/05/30 04:29:37;;;;;;;580.60;345.23;;;;;;;;;;4985009;28;20125;-79
2021/05/30 04:32:04;;;;;;;572.53;353.08;;;;;;;;;;4989332;28;20028;-80
2021/05/30 04:34:30;;;;;;;556.35;331.00;;;;;;;;;;4989704;28;20033;-80
2021/05/30 04:36:56;;;;;;;567.60;342.02;;;;;;;;;;4980633;28;20019;-80
2021/05/30 04:39:22;;;;;;;563.42;348.10;;;;;;;;;;4980670;28;20042;-79
2021/05/30 04:41:48;;;;;;;519.03;316.80;;;;;;;;;;4981691;28;20109;-81
2021/05/30 04:44:14;;;;;;;506.73;307.73;;;;;;;;;;4983569;28;20033;-80
2021/05/30 04:46:40;;;;;;;506.20;310.17;;;;;;;;;;4978993;28;20022;-81
2021/05/30 04:49:06;;;;;;;508.38;311.40;;;;;;;;;;4977226;28;20117;-79
2021/05/30 04:51:32;;;;;;;498.55;300.50;;;;;;;;;;4981420;28;20049;-80
2021/05/30 04:53:59;;;;;;;500.05;312.95;;;;;;;;;;4983075;28;20032;-79
2021/05/30 04:56:25;;;;;;;515.35;319.80;;;;;;;;;;4983393;28;20309;-79
2021/05/30 04:58:51;;;;;;;501.73;307.45;;;;;;;;;;4980978;28;20101;-81
2021/05/30 05:01:17;;;;;;;489.40;304.88;;;;;;;;;;4979064;28;20462;-80
2021/05/30 05:03:43;;;;;;;491.55;311.35;;;;;;;;;;4995446;28;20029;-80
2021/05/30 05:06:10;;;;;;;492.92;307.90;;;;;;;;;;4985224;28;20023;-81
2021/05/30 05:08:36;;;;;;;494.95;301.58;;;;;;;;;;4980769;28;20035;-81
2021/05/30 05:11:02;;;;;;;496.80;312.20;;;;;;;;;;4980534;28;20019;-79
2021/05/30 05:13:28;;;;;;;513.75;317.50;;;;;;;;;;4978618;28;20097;-81
2021/05/30 05:15:54;;;;;;;562.60;345.17;;;;;;;;;;4986977;28;20146;-80
2021/05/30 05:18:24;;;;;;;558.50;349.58;;;;;;;;;;4985838;28;20120;-80
2021/05/30 05:20:51;;;;;;;534.10;331.95;;;;;;;;;;4978048;28;20014;-81
2021/05/30 05:23:24;;;;;;;535.60;332.77;;;;;;;;;;4980715;28;20076;-79
2021/05/30 05:25:54;;;;;;;518.40;318.60;;;;;;;;;;4979446;28;20064;-83
2021/05/30 05:28:21;;;;;;;518.15;329.13;;;;;;;;;;4976165;28;20022;-81
2021/05/30 05:30:47;;;;;;;578.38;365.25;;;;;;;;;;4982629;28;20105;-80
2021/05/30 05:33:13;;;;;;;549.55;346.35;;;;;;;;;;4980610;28;20041;-80
2021/05/30 05:35:39;;;;;;;523.42;325.23;;;;;;;;;;4979549;28;20027;-79
2021/05/30 05:38:05;;;;;;;564.63;353.60;;;;;;;;;;4984052;28;20033;-80
2021/05/30 05:40:31;;;;;;;560.30;349.63;;;;;;;;;;4980175;28;20045;-81
2021/05/30 05:42:58;;;;;;;533.50;326.90;;;;;;;;;;4978852;28;20071;-81
2021/05/30 05:45:24;;;;;;;542.25;344.83;;;;;;;;;;4981000;28;20026;-79
2021/05/30 05:47:51;;;;;;;520.65;330.90;;;;;;;;;;4983324;28;20116;-80
2021/05/30 05:50:18;;;;;;;568.92;364.60;;;;;;;;;;4984893;28;20087;-80
2021/05/30 05:52:45;;;;;;;590.58;375.60;;;;;;;;;;4983699;28;20065;-81
2021/05/30 05:55:11;;;;;;;584.15;377.08;;;;;;;;;;4983025;28;20500;-81
2021/05/30 05:57:37;;;;;;;609.50;396.35;;;;;;;;;;4985545;28;20023;-80
2021/05/30 06:00:08;;;;;;;619.42;395.38;;;;;;;;;;4982848;28;20041;-80
2021/05/30 06:02:34;;;;;;;603.60;385.80;;;;;;;;;;4981134;28;20022;-80
2021/05/30 06:05:00;;;;;;;599.63;383.38;;;;;;;;;;4976978;28;20330;-80
2021/05/30 06:07:26;;;;;;;594.97;377.73;;;;;;;;;;4980165;28;20023;-80
2021/05/30 06:09:52;;;;;;;615.53;399.33;;;;;;;;;;4978458;28;20026;-81
2021/05/30 06:12:18;;;;;;;603.10;385.95;;;;;;;;;;4983402;28;20034;-81
2021/05/30 06:14:45;;;;;;;536.80;348.45;;;;;;;;;;4979170;28;20054;-80
2021/05/30 06:17:11;;;;;;;581.38;385.90;;;;;;;;;;4983464;28;20230;-81
2021/05/30 06:19:37;;;;;;;591.50;389.58;;;;;;;;;;4980126;28;20025;-80
2021/05/30 06:22:04;;;;;;;631.53;410.05;;;;;;;;;;4975135;28;20117;-82
2021/05/30 06:24:31;;;;;;;604.97;394.92;;;;;;;;;;4983585;28;20026;-80
2021/05/30 06:26:57;;;;;;;630.25;418.17;;;;;;;;;;4984455;28;20037;-79
2021/05/30 06:29:23;;;;;;;609.30;400.67;;;;;;;;;;4985511;28;20056;-80
2021/05/30 06:31:50;;;;;;;621.58;415.55;;;;;;;;;;4982546;28;20113;-81
2021/05/30 06:34:16;;;;;;;588.95;396.73;;;;;;;;;;4978483;28;20053;-79
2021/05/30 06:36:43;;;;;;;581.83;390.30;;;;;;;;;;4976360;28;20060;-80
2021/05/30 06:39:09;;;;;;;609.22;409.58;;;;;;;;;;4989297;28;20045;-81
2021/05/30 06:41:36;;;;;;;577.50;385.80;;;;;;;;;;4983998;28;20044;-80
2021/05/30 06:44:02;;;;;;;599.58;397.02;;;;;;;;;;4984101;28;20095;-81
2021/05/30 06:46:28;;;;;;;635.80;424.48;;;;;;;;;;4978109;28;20027;-81
2021/05/30 06:48:54;;;;;;;604.72;405.15;;;;;;;;;;4992002;28;20018;-79
2021/05/30 06:51:22;;;;;;;598.20;406.70;;;;;;;;;;4983326;28;20456;-81
2021/05/30 06:53:49;;;;;;;592.38;408.10;;;;;;;;;;4979026;28;20053;-79
2021/05/30 06:56:16;;;;;;;595.58;408.58;;;;;;;;;;4980158;28;20026;-79
2021/05/30 06:58:42;;;;;;;579.42;390.98;;;;;;;;;;4981155;28;20091;-81
2021/05/30 07:01:08;;;;;;;584.30;403.63;;;;;;;;;;4980222;28;20030;-80
2021/05/30 07:03:34;;;;;;;560.72;391.42;;;;;;;;;;4984130;28;20026;-81
2021/05/30 07:06:00;;;;;;;598.78;422.45;;;;;;;;;;4992199;28;20117;-79
2021/05/30 07:08:26;;;;;;;593.20;413.65;;;;;;;;;;4983744;28;20059;-80
2021/05/30 07:10:53;;;;;;;610.90;422.35;;;;;;;;;;4987705;28;20018;-81
2021/05/30 07:13:19;;;;;;;603.97;427.17;;;;;;;;;;4984780;28;20057;-79
2021/05/30 07:15:45;;;;;;;594.72;416.90;;;;;;;;;;4985068;28;20106;-82
2021/05/30 07:18:11;;;;;;;611.90;437.20;;;;;;;;;;4985915;28;21539;-80
2021/05/30 07:20:37;;;;;;;535.53;385.20;;;;;;;;;;4985149;28;20018;-81
2021/05/30 07:23:04;;;;;;;523.95;376.50;;;;;;;;;;4986036;28;20588;-81
2021/05/30 07:25:30;;;;;;;536.63;377.13;;;;;;;;;;4978266;28;20038;-80
2021/05/30 07:27:56;;;;;;;563.20;401.92;;;;;;;;;;4983033;28;20030;-77
2021/05/30 07:30:22;;;;;;;556.85;395.27;;;;;;;;;;4996126;28;20030;-78
2021/05/30 07:32:48;;;;;;;555.70;395.27;;;;;;;;;;4982417;28;20457;-78
2021/05/30 07:35:14;;;;;;;601.53;439.95;;;;;;;;;;4992577;28;20058;-77
2021/05/30 07:37:40;;;;;;;584.20;427.60;;;;;;;;;;4996095;28;20030;-79
2021/05/30 07:40:07;;;;;;;611.90;457.42;;;;;;;;;;4992738;28;20729;-78
2021/05/30 07:42:33;;;;;;;589.85;431.67;;;;;;;;;;5002209;28;20022;-82
2021/05/30 07:44:59;;;;;;;539.92;401.25;;;;;;;;;;4990332;28;20033;-82
2021/05/30 07:47:25;;;;;;;583.67;439.25;;;;;;;;;;4986953;28;20351;-82
2021/05/30 07:49:51;;;;;;;602.55;453.50;;;;;;;;;;4980841;28;20022;-81
2021/05/30 07:52:17;;;;;;;561.95;414.35;;;;;;;;;;4976919;28;20111;-80
2021/05/30 07:54:43;;;;;;;575.63;437.17;;;;;;;;;;4981587;28;20053;-82
2021/05/30 07:57:09;;;;;;;594.55;455.65;;;;;;;;;;4979245;28;20026;-82
2021/05/30 07:59:35;;;;;;;548.83;414.30;;;;;;;;;;4984329;28;20094;-81
2021/05/30 08:02:01;;;;;;;552.38;415.17;;;;;;;;;;4981905;28;20488;-81
2021/05/30 08:04:27;;;;;;;555.50;419.35;;;;;;;;;;4979905;28;20034;-81
2021/05/30 08:06:53;;;;;;;554.65;428.35;;;;;;;;;;4975829;28;20018;-82
2021/05/30 08:09:19;;;;;;;599.55;457.55;;;;;;;;;;4976448;28;20041;-82
2021/05/30 08:11:45;;;;;;;566.03;428.13;;;;;;;;;;4982090;28;20433;-82
2021/05/30 08:14:11;;;;;;;538.45;411.33;;;;;;;;;;4985598;28;20368;-82
2021/05/30 08:16:39;;;;;;;554.95;420.70;;;;;;;;;;4974177;28;20352;-83
2021/05/30 08:19:05;;;;;;;523.20;405.10;;;;;;;;;;4976587;28;20023;-82
2021/05/30 08:21:31;;;;;;;527.70;415.27;;;;;;;;;;4983372;28;20022;-81
2021/05/30 08:23:57;;;;;;;533.35;417.77;;;;;;;;;;4985385;28;20025;-82
2021/05/30 08:26:24;;;;;;;526.70;415.17;;;;;;;;;;4981699;28;20527;-79
2021/05/30 08:28:50;;;;;;;577.08;458.40;;;;;;;;;;4982381;28;20079;-82
2021/05/30 08:31:16;;;;;;;560.80;441.25;;;;;;;;;;4980296;28;20352;-80
2021/05/30 08:33:42;;;;;;;592.60;474.23;;;;;;;;;;4980697;28;20393;-81
2021/05/30 08:36:08;;;;;;;611.70;500.35;;;;;;;;;;5004474;28;20100;-80
2021/05/30 08:38:34;;;;;;;588.10;477.35;;;;;;;;;;4975194;28;20721;-79
2021/05/30 08:41:00;;;;;;;609.30;494.77;;;;;;;;;;4988620;28;20391;-80
2021/05/30 08:43:30;;;;;;;622.75;512.80;;;;;;;;;;4983022;28;20034;-80
2021/05/30 08:45:56;;;;;;;561.72;462.88;;;;;;;;;;4986422;28;20105;-76
2021/05/30 08:48:22;;;;;;;619.10;512.60;;;;;;;;;;4983199;28;20145;-78
2021/05/30 08:51:02;;;;;;;632.90;519.47;;;;;;;;;;4994932;28;20022;-79
2021/05/30 08:53:34;;;;;;;640.38;534.53;;;;;;;;;;4978723;28;20362;-81
2021/05/30 08:56:00;;;;;;;576.28;495.23;;;;;;;;;;4994641;28;20041;-80
2021/05/30 08:58:35;;;;;;;579.20;510.30;;;;;;;;;;4978266;28;20053;-79
2021/05/30 09:01:11;;;;;;;571.80;506.63;;;;;;;;;;4982989;28;20023;-79
2021/05/30 09:04:02;;;;;;;611.08;544.45;;;;;;;;;;4984096;28;20048;-80
2021/05/30 09:06:28;;;;;;;659.63;587.10;;;;;;;;;;4978158;28;20071;-78
2021/05/30 09:08:54;;;;;;;612.47;545.67;;;;;;;;;;4982136;28;20022;-80
2021/05/30 09:11:38;;;;;;;642.80;574.22;;;;;;;;;;4980465;28;20576;-79
2021/05/30 09:14:08;;;;;;;693.92;622.10;;;;;;;;;;4984877;28;20468;-81
2021/05/30 09:16:47;;;;;;;721.97;647.70;;;;;;;;;;4981420;28;20030;-81
2021/05/30 09:19:29;;;;;;;702.28;628.85;;;;;;;;;;4983576;28;20126;-79
2021/05/30 09:22:13;;;;;;;684.65;613.55;;;;;;;;;;4979983;28;20032;-80
2021/05/30 09:24:39;;;;;;;704.97;630.88;;;;;;;;;;4980538;28;20014;-80
2021/05/30 09:27:09;;;;;;;691.40;621.03;;;;;;;;;;4986711;28;20079;-80
2021/05/30 09:29:35;;;;;;;647.90;582.13;;;;;;;;;;4981272;28;20018;-79
2021/05/30 09:32:01;;;;;;;730.78;658.10;;;;;;;;;;4979728;28;20079;-79
2021/05/30 09:34:31;;;;;;;799.85;722.88;;;;;;;;;;4984009;28;20034;-79
2021/05/30 09:36:58;;;;;;;711.35;641.92;;;;;;;;;;4984776;28;20022;-80
2021/05/30 09:39:37;;;;;;;704.65;635.83;;;;;;;;;;4990224;28;20531;-79
2021/05/30 09:42:25;;;;;;;687.97;620.60;;;;;;;;;;4980688;28;20042;-81
2021/05/30 09:45:18;;;;;;;772.75;700.17;;;;;;;;;;4985548;28;20087;-81
2021/05/30 09:47:45;;;;;;;751.47;682.97;;;;;;;;;;4976948;28;20038;-80
2021/05/30 09:50:18;;;;;;;744.88;678.83;;;;;;;;;;4984283;28;20046;-80
2021/05/30 09:52:53;;;;;;;789.38;721.33;;;;;;;;;;4981449;28;20033;-88
2021/05/30 09:55:28;;;;;;;735.63;671.78;;;;;;;;;;4986821;28;20035;-82
2021/05/30 09:58:14;;;;;;;779.95;714.67;;;;;;;;;;4995403;28;20109;-81
2021/05/30 10:00:41;;;;;;;806.25;740.25;;;;;;;;;;4981304;28;20026;-80
2021/05/30 10:03:10;;;;;;;808.92;743.47;;;;;;;;;;4985319;28;20053;-83
2021/05/30 10:05:37;;;;;;;821.38;756.25;;;;;;;;;;4980577;28;20030;-81
2021/05/30 10:08:03;;;;;;;838.15;772.60;;;;;;;;;;4988206;28;20413;-79
2021/05/30 10:10:29;;;;;;;789.13;726.88;;;;;;;;;;4986403;28;20036;-81
2021/05/30 10:12:55;;;;;;;795.72;733.65;;;;;;;;;;4982988;28;20356;-79
2021/05/30 10:15:21;;;;;;;796.53;734.78;;;;;;;;;;4983441;28;20775;-81
2021/05/30 10:17:49;;;;;;;813.05;750.45;;;;;;;;;;4987850;28;20406;-82
2021/05/30 10:20:19;;;;;;;804.38;742.50;;;;;;;;;;4996026;28;20460;-80
2021/05/30 10:22:46;;;;;;;;;;;;;;;;;;4974939;28;20021;-80
2021/05/30 10:25:12;;;;;;;800.17;738.40;;;;;;;;;;4982857;28;20229;-82
2021/05/30 10:27:38;;;;;;;813.55;751.13;;;;;;;;;;4982738;28;20022;-82
2021/05/30 10:30:13;;;;;;;798.78;736.97;;;;;;;;;;4989904;28;20037;-81
2021/05/30 10:32:42;;;;;;;818.00;755.67;;;;;;;;;;4984882;28;20594;-81
2021/05/30 10:35:10;;;;;;;;;;;;;;;;;;4984725;28;20045;-80
2021/05/30 10:37:45;;;;;;;857.17;793.35;;;;;;;;;;4989136;28;19928;-80
2021/05/30 10:40:33;;;;;;;875.97;811.33;;;;;;;;;;4987327;28;20122;-81
2021/05/30 10:43:16;;;;;;;933.42;865.58;;;;;;;;;;4985803;28;20803;-82
2021/05/30 10:45:45;;;;;;;979.53;909.17;;;;;;;;;;4987441;28;20026;-82
2021/05/30 10:48:20;;;;;;;1092.75;999.90;;;;;;;;;;4975516;28;20066;-80
2021/05/30 10:50:57;;;;;;;819.72;759.10;;;;;;;;;;4982298;28;20026;-81
2021/05/30 10:53:38;;;;;;;821.00;760.30;;;;;;;;;;4987367;28;20444;-80
2021/05/30 10:56:23;;;;;;;864.40;801.05;;;;;;;;;;4988777;28;20061;-78
2021/05/30 10:59:07;;;;;;;887.00;822.20;;;;;;;;;;4999973;28;20018;-81
2021/05/30 11:01:48;;;;;;;873.95;809.45;;;;;;;;;;4995816;28;20028;-79
2021/05/30 11:04:30;;;;;;;928.53;859.75;;;;;;;;;;4980247;28;20034;-81
2021/05/30 11:07:02;;;;;;;915.90;847.00;;;;;;;;;;4983268;28;20125;-81
2021/05/30 11:09:47;;;;;;;906.45;836.88;;;;;;;;;;4988225;28;20108;-79
2021/05/30 11:12:24;;;;;;;841.67;774.42;;;;;;;;;;4988325;28;20656;-79
2021/05/30 11:15:10;;;;;;;776.65;712.35;;;;;;;;;;4981733;28;20065;-78
2021/05/30 11:17:40;;;;;;;730.70;668.25;;;;;;;;;;4982615;28;20125;-80
2021/05/30 11:20:14;;;;;;;748.33;684.20;;;;;;;;;;4976921;28;20017;-80
2021/05/30 11:22:59;;;;;;;755.85;690.72;;;;;;;;;;4984198;28;20064;-81
2021/05/30 11:25:31;;;;;;;730.35;666.72;;;;;;;;;;4989823;28;20037;-79
2021/05/30 11:28:01;;;;;;;737.20;673.00;;;;;;;;;;4991141;28;20079;-80
2021/05/30 11:30:55;;;;;;;752.10;687.10;;;;;;;;;;4984694;28;20037;-80
2021/05/30 11:33:21;;;;;;;774.13;707.53;;;;;;;;;;4980781;28;20104;-81
2021/05/30 11:35:50;;;;;;;798.08;729.90;;;;;;;;;;4979020;28;20030;-84
2021/05/30 11:38:19;;;;;;;804.28;735.70;;;;;;;;;;4988585;28;20496;-82
2021/05/30 11:40:52;;;;;;;818.42;749.00;;;;;;;;;;4983986;28;20030;-80
2021/05/30 11:43:18;;;;;;;792.47;724.83;;;;;;;;;;4979667;28;20022;-83
2021/05/30 11:45:48;;;;;;;870.75;797.95;;;;;;;;;;4986281;28;20042;-81
2021/05/30 11:48:25;;;;;;;941.25;864.05;;;;;;;;;;4986300;28;20121;-80
2021/05/30 11:50:53;;;;;;;713.22;651.15;;;;;;;;;;4980283;28;20079;-81
2021/05/30 11:53:26;;;;;;;781.97;715.28;;;;;;;;;;4984314;28;20030;-79
2021/05/30 11:55:58;;;;;;;821.50;751.20;;;;;;;;;;4981077;28;20030;-79
2021/05/30 11:58:26;;;;;;;783.83;716.53;;;;;;;;;;4979267;28;20031;-80
2021/05/30 12:00:58;;;;;;;763.85;697.88;;;;;;;;;;4988569;28;20079;-81
2021/05/30 12:03:25;;;;;;;909.13;833.60;;;;;;;;;;4985691;28;20684;-80
2021/05/30 12:05:58;;;;;;;725.58;662.30;;;;;;;;;;4986584;28;20041;-78
2021/05/30 12:08:24;;;;;;;941.50;864.20;;;;;;;;;;4987014;28;20022;-79
2021/05/30 12:10:57;;;;;;;742.38;678.85;;;;;;;;;;4984699;28;20427;-80
2021/05/30 12:13:26;;;;;;;749.97;686.28;;;;;;;;;;4974031;28;20057;-81
2021/05/30 12:15:56;;;;;;;980.70;901.30;;;;;;;;;;4977456;28;20158;-81
2021/05/30 12:18:23;;;;;;;697.35;637.67;;;;;;;;;;4986441;28;20265;-79
2021/05/30 12:21:03;;;;;;;718.00;657.17;;;;;;;;;;4986045;28;20026;-80
2021/05/30 12:23:29;;;;;;;742.38;680.47;;;;;;;;;;4984629;28;20049;-80
2021/05/30 12:25:58;;;;;;;784.22;720.03;;;;;;;;;;4991919;28;20026;-80
2021/05/30 12:28:27;;;;;;;1034.00;952.58;;;;;;;;;;4986691;28;20034;-80
2021/05/30 12:31:03;;;;;;;1041.53;959.53;;;;;;;;;;4991087;28;20022;-81
2021/05/30 12:33:48;;;;;;;792.03;727.38;;;;;;;;;;4990436;28;20285;-80
2021/05/30 12:36:15;;;;;;;795.30;730.80;;;;;;;;;;4990512;28;20102;-80
2021/05/30 12:38:40;;;;;;;886.00;816.17;;;;;;;;;;4988277;28;20079;-79
2021/05/30 12:41:13;;;;;;;898.97;828.30;;;;;;;;;;4978264;28;20461;-78
2021/05/30 12:43:40;;;;;;;896.72;825.53;;;;;;;;;;4976469;28;20025;-80
2021/05/30 12:46:07;;;;;;;1069.90;986.50;;;;;;;;;;4985762;28;20022;-78
2021/05/30 12:48:40;;;;;;;786.63;722.42;;;;;;;;;;4988759;28;20078;-78
2021/05/30 12:51:16;;;;;;;846.03;778.45;;;;;;;;;;4989949;28;20091;-80
2021/05/30 12:53:43;;;;;;;1053.65;971.63;;;;;;;;;;4986373;28;20053;-81
2021/05/30 12:56:15;;;;;;;770.58;707.53;;;;;;;;;;4982812;28;20010;-80
2021/05/30 12:58:41;;;;;;;781.53;717.63;;;;;;;;;;4985906;28;20121;-79
2021/05/30 13:01:22;;;;;;;763.53;701.22;;;;;;;;;;4988257;28;20109;-80
2021/05/30 13:03:50;;;;;;;781.20;717.47;;;;;;;;;;4986374;28;20313;-79
2021/05/30 13:06:16;;;;;;;765.38;702.45;;;;;;;;;;4978633;28;20040;-79
2021/05/30 13:08:42;;;;;;;796.15;731.17;;;;;;;;;;4986740;28;20032;-80
2021/05/30 13:11:08;;;;;;;793.53;728.53;;;;;;;;;;4983505;28;20026;-78
2021/05/30 13:13:37;;;;;;;821.63;754.78;;;;;;;;;;4988036;28;20131;-78
2021/05/30 13:16:03;;;;;;;877.17;807.03;;;;;;;;;;4990840;28;20057;-81
2021/05/30 13:18:30;;;;;;;876.22;806.22;;;;;;;;;;4981290;28;20038;-80
2021/05/30 13:20:57;;;;;;;1044.13;961.70;;;;;;;;;;4984595;28;20094;-80
2021/05/30 13:23:27;;;;;;;786.03;721.25;;;;;;;;;;4982911;28;20030;-80
2021/05/30 13:26:10;;;;;;;809.63;742.83;;;;;;;;;;4982524;28;20491;-79
2021/05/30 13:28:37;;;;;;;762.17;698.85;;;;;;;;;;4987415;28;20433;-80
2021/05/30 13:31:18;;;;;;;1017.25;936.97;;;;;;;;;;4984480;28;20038;-80
2021/05/30 13:33:52;;;;;;;750.17;687.78;;;;;;;;;;4983232;28;20767;-80
2021/05/30 13:36:19;;;;;;;757.13;694.03;;;;;;;;;;4987808;28;20034;-81
2021/05/30 13:38:48;;;;;;;753.33;691.00;;;;;;;;;;4986120;28;20025;-80
2021/05/30 13:41:24;;;;;;;740.40;678.13;;;;;;;;;;4984299;28;20047;-81
2021/05/30 13:43:50;;;;;;;724.78;663.80;;;;;;;;;;4983554;28;20034;-78
2021/05/30 13:46:16;;;;;;;722.78;661.50;;;;;;;;;;4994761;28;20038;-79
2021/05/30 13:48:43;;;;;;;731.42;669.30;;;;;;;;;;4985361;28;20029;-80
2021/05/30 13:51:09;;;;;;;716.17;655.03;;;;;;;;;;4987107;28;20059;-79
2021/05/30 13:54:11;;;;;;;702.58;641.75;;;;;;;;;;4989392;28;20033;-81
2021/05/30 13:56:40;;;;;;;708.50;647.22;;;;;;;;;;4987962;28;20115;-84
2021/05/30 13:59:20;;;;;;;696.80;635.83;;;;;;;;;;4994480;28;20120;-80
2021/05/30 14:01:46;;;;;;;;;;;;;;;;;;4983225;28;20058;-80
2021/05/30 14:04:13;;;;;;;690.60;629.38;;;;;;;;;;4992276;28;20483;-80